createdAt,value
2023-03-02T00:01:04.519Z,21.87
2023-03-02T00:03:36.987Z,21.80
2023-03-02T00:06:09.808Z,23.03
2023-03-02T00:08:41.112Z,22.63
2023-03-02T00:11:11.818Z,21.63
2023-03-02T00:13:43.549Z,19.40
2023-03-02T00:16:15.667Z,20.47
2023-03-02T00:18:46.230Z,22.57
2023-03-02T00:21:16.860Z,22.43
2023-03-02T00:23:49.001Z,21.57
2023-03-02T00:26:21.919Z,21.33
2023-03-02T00:28:52.469Z,20.00
2023-03-02T00:31:23.060Z,21.10
2023-03-02T00:33:57.100Z,20.92
2023-03-02T00:36:27.725Z,17.20
2023-03-02T00:38:58.247Z,17.40
2023-03-02T00:41:29.110Z,16.33
2023-03-02T00:43:59.610Z,16.27
2023-03-02T00:46:31.296Z,17.80
2023-03-02T00:49:03.641Z,13.37
2023-03-02T00:51:34.620Z,13.57
2023-03-02T00:54:06.181Z,13.30
2023-03-02T00:56:37.038Z,13.43
2023-03-02T00:59:30.332Z,13.43
2023-03-02T01:02:01.770Z,13.90
2023-03-02T01:04:36.698Z,13.50
2023-03-02T01:07:10.753Z,12.87
2023-03-02T01:09:43.380Z,14.07
2023-03-02T01:12:14.698Z,14.17
2023-03-02T01:14:49.122Z,13.17
2023-03-02T01:17:23.020Z,13.83
2023-03-02T01:19:55.796Z,14.43
2023-03-02T01:22:26.589Z,13.53
2023-03-02T01:24:58.268Z,14.23
2023-03-02T01:27:31.263Z,13.77
2023-03-02T01:30:01.821Z,13.87
2023-03-02T01:32:34.168Z,15.00
2023-03-02T01:35:06.093Z,14.43
2023-03-02T01:37:36.751Z,13.87
2023-03-02T01:40:09.170Z,14.27
2023-03-02T01:42:42.519Z,14.33
2023-03-02T01:45:51.233Z,13.93
2023-03-02T01:48:30.495Z,13.77
2023-03-02T01:51:03.200Z,13.17
2023-03-02T01:53:36.492Z,14.07
2023-03-02T01:56:07.998Z,13.67
2023-03-02T01:58:39.339Z,13.37
2023-03-02T02:01:17.378Z,13.77
2023-03-02T02:03:51.299Z,13.77
2023-03-02T02:06:39.578Z,14.00
2023-03-02T02:09:13.371Z,13.53
2023-03-02T02:11:44.905Z,13.83
2023-03-02T02:14:16.174Z,13.93
2023-03-02T02:16:47.227Z,14.33
2023-03-02T02:19:27.137Z,13.83
2023-03-02T02:21:57.889Z,14.63
2023-03-02T02:24:37.352Z,14.20
2023-03-02T02:27:08.207Z,14.30
2023-03-02T02:29:43.447Z,14.37
2023-03-02T02:32:17.191Z,14.50
2023-03-02T02:34:56.578Z,14.67
2023-03-02T02:37:42.518Z,14.57
2023-03-02T02:40:21.692Z,15.13
2023-03-02T02:42:54.148Z,14.33
2023-03-02T02:45:27.311Z,14.43
2023-03-02T02:47:59.613Z,14.70
2023-03-02T02:50:35.825Z,14.47
2023-03-02T02:53:18.173Z,14.60
2023-03-02T02:55:54.563Z,14.90
2023-03-02T02:58:40.333Z,14.73
2023-03-02T03:01:14.367Z,14.17
2023-03-02T03:03:47.903Z,13.97
2023-03-02T03:06:22.757Z,13.87
2023-03-02T03:08:56.481Z,14.40
2023-03-02T03:11:30.209Z,13.97
2023-03-02T03:14:08.352Z,13.83
2023-03-02T03:16:40.970Z,14.37
2023-03-02T03:19:14.544Z,14.33
2023-03-02T03:21:45.777Z,14.20
2023-03-02T03:24:16.322Z,14.73
2023-03-02T03:26:46.910Z,14.13
2023-03-02T03:29:19.888Z,14.87
2023-03-02T03:31:51.643Z,14.27
2023-03-02T03:34:24.436Z,14.67
2023-03-02T03:36:55.524Z,14.37
2023-03-02T03:39:26.132Z,14.20
2023-03-02T03:41:57.985Z,14.53
2023-03-02T03:44:28.844Z,13.93
2023-03-02T03:47:01.898Z,14.67
2023-03-02T03:49:34.615Z,13.97
2023-03-02T03:52:05.195Z,14.23
2023-03-02T03:54:35.700Z,14.53
2023-03-02T03:57:07.477Z,14.87
2023-03-02T03:59:37.924Z,14.73
2023-03-02T04:02:08.407Z,14.13
2023-03-02T04:04:39.005Z,14.43
2023-03-02T04:07:10.109Z,14.57
2023-03-02T04:09:40.977Z,14.00
2023-03-02T04:12:12.199Z,14.17
2023-03-02T04:14:42.914Z,14.23
2023-03-02T04:17:13.372Z,14.90
2023-03-02T04:19:45.757Z,14.30
2023-03-02T04:22:17.158Z,14.10
2023-03-02T04:24:49.016Z,14.53
2023-03-02T04:27:20.166Z,14.87
2023-03-02T04:29:53.159Z,15.80
2023-03-02T04:32:25.721Z,15.93
2023-03-02T04:34:56.161Z,14.73
2023-03-02T04:37:27.280Z,14.47
2023-03-02T04:39:58.050Z,14.57
2023-03-02T04:42:28.920Z,14.80
2023-03-02T04:44:59.524Z,15.70
2023-03-02T04:47:30.113Z,15.63
2023-03-02T04:50:01.112Z,16.80
2023-03-02T04:52:31.658Z,16.73
2023-03-02T04:55:02.294Z,16.30
2023-03-02T04:57:32.933Z,17.13
2023-03-02T05:00:04.959Z,17.00
2023-03-02T05:02:37.189Z,17.17
2023-03-02T05:05:08.582Z,16.63
2023-03-02T05:07:39.116Z,17.80
2023-03-02T05:10:10.716Z,18.23
2023-03-02T05:13:01.221Z,18.70
2023-03-02T05:15:34.718Z,18.90
2023-03-02T05:18:12.138Z,18.30
2023-03-02T05:20:40.382Z,18.43
2023-03-02T05:23:15.870Z,18.97
2023-03-02T05:25:46.512Z,18.60
2023-03-02T05:28:18.137Z,19.80
2023-03-02T05:30:49.257Z,20.53
2023-03-02T05:33:20.512Z,20.33
2023-03-02T05:35:51.063Z,19.73
2023-03-02T05:38:21.746Z,20.73
2023-03-02T05:40:52.397Z,20.87
2023-03-02T05:43:24.068Z,21.73
2023-03-02T05:45:57.190Z,20.90
2023-03-02T05:48:29.883Z,22.03
2023-03-02T05:51:00.667Z,21.20
2023-03-02T05:53:31.298Z,20.57
2023-03-02T05:56:01.881Z,22.30
2023-03-02T05:58:34.932Z,20.77
2023-03-02T06:01:14.780Z,20.77
2023-03-02T06:03:44.369Z,20.67
2023-03-02T06:06:15.075Z,20.27
2023-03-02T06:08:48.420Z,20.37
2023-03-02T06:11:18.350Z,20.63
2023-03-02T06:13:50.194Z,20.30
2023-03-02T06:16:20.897Z,20.17
2023-03-02T06:18:51.407Z,20.77
2023-03-02T06:21:22.087Z,20.83
2023-03-02T06:23:52.600Z,21.13
2023-03-02T06:26:24.243Z,20.43
2023-03-02T06:28:54.770Z,21.20
2023-03-02T06:31:25.446Z,20.57
2023-03-02T06:33:55.966Z,19.67
2023-03-02T06:36:29.595Z,20.00
2023-03-02T06:39:01.251Z,19.73
2023-03-02T06:41:33.832Z,18.97
2023-03-02T06:44:06.216Z,20.80
2023-03-02T06:46:37.424Z,17.80
2023-03-02T06:49:08.934Z,19.33
2023-03-02T06:51:39.713Z,18.83
2023-03-02T06:54:10.209Z,17.37
2023-03-02T06:56:41.158Z,17.07
2023-03-02T06:59:15.276Z,18.63
2023-03-02T07:01:47.637Z,20.17
2023-03-02T07:04:18.134Z,18.97
2023-03-02T07:06:48.654Z,19.90
2023-03-02T07:09:19.161Z,20.43
2023-03-02T07:11:55.343Z,19.50
2023-03-02T07:14:25.912Z,20.93
2023-03-02T07:19:40.889Z,21.80
2023-03-02T07:22:11.632Z,21.23
2023-03-02T07:24:44.050Z,19.97
2023-03-02T07:27:16.037Z,19.70
2023-03-02T07:29:47.230Z,18.93
2023-03-02T07:32:22.589Z,18.80
2023-03-02T07:34:53.549Z,18.90
2023-03-02T07:37:24.757Z,17.80
2023-03-02T07:40:00.606Z,17.23
2023-03-02T07:42:31.024Z,18.23
2023-03-02T07:45:04.408Z,21.77
2023-03-02T07:47:34.817Z,19.27
2023-03-02T07:50:07.165Z,20.47
2023-03-02T07:52:38.151Z,19.13
2023-03-02T07:55:09.635Z,18.53
2023-03-02T07:57:40.203Z,18.63
2023-03-02T08:00:11.939Z,18.37
2023-03-02T08:02:47.898Z,16.87
2023-03-02T08:05:18.800Z,17.90
2023-03-02T08:07:52.173Z,17.43
2023-03-02T08:10:23.113Z,16.23
2023-03-02T08:12:53.737Z,18.47
2023-03-02T08:15:24.878Z,16.73
2023-03-02T08:18:01.976Z,17.17
2023-03-02T08:20:34.303Z,16.43
2023-03-02T08:23:04.917Z,17.67
2023-03-02T08:25:37.455Z,17.30
2023-03-02T08:28:07.736Z,18.67
2023-03-02T08:30:38.792Z,18.80
2023-03-02T08:33:09.323Z,18.33
2023-03-02T08:35:39.928Z,18.90
2023-03-02T08:38:14.430Z,18.97
2023-03-02T08:40:46.190Z,19.17
2023-03-02T08:43:19.498Z,19.93
2023-03-02T08:45:54.615Z,19.13
2023-03-02T08:48:28.182Z,18.93
2023-03-02T08:51:05.314Z,18.73
2023-03-02T08:53:39.378Z,20.10
2023-03-02T08:56:19.597Z,20.83
2023-03-02T08:58:52.283Z,20.00
2023-03-02T09:01:27.102Z,18.97
2023-03-02T09:04:00.492Z,21.07
2023-03-02T09:06:33.671Z,21.03
2023-03-02T09:09:07.948Z,20.30
2023-03-02T09:11:44.333Z,20.40
2023-03-02T09:14:16.725Z,19.77
2023-03-02T09:16:48.956Z,20.30
2023-03-02T09:19:20.281Z,21.00
2023-03-02T09:21:51.432Z,19.97
2023-03-02T09:24:23.623Z,17.77
2023-03-02T09:26:54.586Z,19.37
2023-03-02T09:29:25.336Z,19.70
2023-03-02T09:31:58.491Z,18.97
2023-03-02T09:34:30.793Z,19.97
2023-03-02T09:37:01.566Z,18.12
2023-03-02T09:39:32.077Z,19.53
2023-03-02T09:42:11.715Z,18.60
2023-03-02T09:44:45.468Z,18.73
2023-03-02T09:47:34.572Z,19.02
2023-03-02T09:50:18.156Z,19.20
2023-03-02T09:52:51.947Z,17.97
2023-03-02T09:55:26.333Z,18.47
2023-03-02T09:57:57.556Z,17.23
2023-03-02T10:00:40.453Z,18.73
2023-03-02T10:03:31.722Z,17.53
2023-03-02T10:06:02.517Z,16.67
2023-03-02T10:08:36.323Z,16.87
2023-03-02T10:11:25.025Z,16.70
2023-03-02T10:14:21.550Z,16.57
2023-03-02T10:17:28.887Z,17.57
2023-03-02T10:20:02.573Z,17.57
2023-03-02T10:22:37.921Z,17.50
2023-03-02T10:25:46.866Z,17.25
2023-03-02T10:28:26.199Z,18.50
2023-03-02T10:31:05.683Z,16.75
2023-03-02T10:33:42.335Z,17.80
2023-03-02T10:36:31.027Z,16.67
2023-03-02T10:39:01.662Z,16.33
2023-03-02T10:41:35.753Z,17.30
2023-03-02T10:44:09.394Z,17.33
2023-03-02T10:46:42.028Z,17.20
2023-03-02T10:49:33.930Z,16.48
2023-03-02T10:52:20.154Z,16.10
2023-03-02T10:54:54.515Z,15.95
2023-03-02T10:57:37.148Z,16.27
2023-03-02T11:00:27.796Z,15.60
2023-03-02T11:03:01.428Z,16.17
2023-03-02T11:05:42.666Z,15.63
2023-03-02T11:08:18.956Z,15.58
2023-03-02T11:11:06.817Z,17.53
2023-03-02T11:13:40.612Z,15.60
2023-03-02T11:16:24.078Z,15.77
2023-03-02T11:19:01.055Z,16.27
2023-03-02T11:21:36.340Z,14.47
2023-03-02T11:24:34.503Z,13.98
2023-03-02T11:27:09.296Z,14.58
2023-03-02T11:29:42.949Z,15.98
2023-03-02T11:32:34.812Z,16.27
2023-03-02T11:35:31.534Z,14.97
2023-03-02T11:38:17.341Z,13.93
2023-03-02T11:40:58.263Z,13.37
2023-03-02T11:43:30.257Z,14.03
2023-03-02T11:46:13.917Z,14.98
2023-03-02T11:48:42.493Z,14.75
2023-03-02T11:51:17.696Z,13.55
2023-03-02T11:54:08.905Z,13.80
2023-03-02T11:56:40.874Z,14.70
2023-03-02T11:59:21.585Z,14.40
2023-03-02T12:01:59.504Z,12.98
2023-03-02T12:04:33.617Z,13.03
2023-03-02T12:07:23.212Z,13.77
2023-03-02T12:10:09.777Z,13.70
2023-03-02T12:12:44.278Z,13.27
2023-03-02T12:15:38.819Z,14.43
2023-03-02T12:18:27.708Z,13.95
2023-03-02T12:21:06.860Z,13.70
2023-03-02T12:23:46.252Z,13.50
2023-03-02T12:26:22.583Z,13.25
2023-03-02T12:29:15.557Z,13.60
2023-03-02T12:31:55.335Z,13.62
2023-03-02T12:34:37.621Z,12.53
2023-03-02T12:37:16.943Z,12.98
2023-03-02T12:39:53.220Z,22.50
2023-03-02T12:42:46.958Z,12.47
2023-03-02T12:45:37.281Z,11.73
2023-03-02T12:48:26.877Z,12.25
2023-03-02T12:51:00.622Z,11.93
2023-03-02T12:53:33.239Z,11.88
2023-03-02T12:56:04.330Z,12.60
2023-03-02T12:58:35.229Z,11.33
2023-03-02T13:01:06.792Z,12.73
2023-03-02T13:03:40.359Z,11.53
2023-03-02T13:06:17.824Z,12.17
2023-03-02T13:08:54.847Z,11.33
2023-03-02T13:11:29.596Z,11.28
2023-03-02T13:14:06.120Z,10.90
2023-03-02T13:16:38.185Z,12.03
2023-03-02T13:19:12.027Z,11.48
2023-03-02T13:21:44.284Z,11.57
2023-03-02T13:24:32.220Z,11.33
2023-03-02T13:27:11.292Z,11.07
2023-03-02T13:29:41.867Z,11.00
2023-03-02T13:32:24.493Z,11.30
2023-03-02T13:34:58.725Z,11.70
2023-03-02T13:37:42.280Z,11.73
2023-03-02T13:40:29.637Z,12.43
2023-03-02T13:43:00.216Z,14.90
2023-03-02T13:45:34.899Z,14.27
2023-03-02T13:48:16.141Z,12.93
2023-03-02T13:51:16.692Z,13.20
2023-03-02T13:54:09.056Z,12.50
2023-03-02T13:56:41.612Z,13.83
2023-03-02T13:59:18.112Z,12.45
2023-03-02T14:01:48.721Z,13.60
2023-03-02T14:04:25.304Z,14.03
2023-03-02T14:06:57.870Z,13.80
2023-03-02T14:09:29.458Z,14.00
2023-03-02T14:12:00.158Z,13.13
2023-03-02T14:14:32.826Z,12.53
2023-03-02T14:17:05.982Z,12.63
2023-03-02T14:19:39.952Z,12.57
2023-03-02T14:22:13.653Z,12.37
2023-03-02T14:24:44.228Z,12.63
2023-03-02T14:27:17.113Z,12.93
2023-03-02T14:29:48.408Z,11.93
2023-03-02T14:32:19.047Z,13.10
2023-03-02T14:34:49.576Z,12.17
2023-03-02T14:37:22.924Z,12.07
2023-03-02T14:39:55.573Z,11.75
2023-03-02T14:42:27.210Z,10.60
2023-03-02T14:45:00.473Z,11.77
2023-03-02T14:47:32.659Z,12.47
2023-03-02T14:50:05.317Z,11.00
2023-03-02T14:52:41.823Z,10.83
2023-03-02T14:55:28.390Z,11.78
2023-03-02T14:58:02.619Z,11.28
2023-03-02T15:00:33.993Z,11.83
2023-03-02T15:03:05.507Z,11.23
2023-03-02T15:05:36.542Z,9.93
2023-03-02T15:08:07.091Z,10.63
2023-03-02T15:10:39.150Z,9.83
2023-03-02T15:13:11.967Z,10.17
2023-03-02T15:15:44.292Z,10.05
2023-03-02T15:18:18.384Z,9.80
2023-03-02T15:20:48.950Z,9.85
2023-03-02T15:23:19.361Z,9.80
2023-03-02T15:25:50.078Z,9.45
2023-03-02T15:28:21.651Z,9.23
2023-03-02T15:30:52.020Z,9.97
2023-03-02T15:33:22.929Z,11.40
2023-03-02T15:35:56.488Z,10.80
2023-03-02T15:38:28.538Z,9.23
2023-03-02T15:40:59.426Z,8.45
2023-03-02T15:43:29.913Z,8.53
2023-03-02T15:46:02.516Z,7.37
2023-03-02T15:48:33.213Z,7.93
2023-03-02T15:51:06.710Z,8.40
2023-03-02T15:53:38.768Z,8.00
2023-03-02T15:56:13.907Z,7.47
2023-03-02T15:58:49.584Z,8.90
2023-03-02T16:01:21.604Z,8.33
2023-03-02T16:03:53.820Z,8.60
2023-03-02T16:06:24.332Z,8.57
2023-03-02T16:08:56.154Z,8.30
2023-03-02T16:11:26.600Z,8.78
2023-03-02T16:13:58.078Z,9.03
2023-03-02T16:16:28.824Z,9.55
2023-03-02T16:19:00.158Z,8.78
2023-03-02T16:21:31.589Z,8.70
2023-03-02T16:24:05.481Z,9.03
2023-03-02T16:26:38.476Z,9.43
2023-03-02T16:29:09.038Z,9.60
2023-03-02T16:31:41.862Z,9.83
2023-03-02T16:34:12.439Z,8.90
2023-03-02T16:36:44.417Z,8.77
2023-03-02T16:39:15.505Z,9.20
2023-03-02T16:41:46.493Z,9.43
2023-03-02T16:44:17.228Z,10.37
2023-03-02T16:46:48.329Z,9.33
2023-03-02T16:49:19.086Z,10.20
2023-03-02T16:51:51.025Z,10.50
2023-03-02T16:54:21.518Z,9.77
2023-03-02T16:56:51.992Z,9.67
2023-03-02T16:59:22.550Z,9.77
2023-03-02T17:01:53.976Z,9.10
2023-03-02T17:04:26.321Z,9.37
2023-03-02T17:07:01.069Z,10.47
2023-03-02T17:09:34.109Z,13.00
2023-03-02T17:12:07.493Z,10.87
2023-03-02T17:14:37.861Z,14.37
2023-03-02T17:17:08.517Z,11.80
2023-03-02T17:19:39.088Z,10.20
2023-03-02T17:22:10.706Z,11.23
2023-03-02T17:24:41.302Z,10.70
2023-03-02T17:27:24.139Z,10.03
2023-03-02T17:29:44.823Z,11.40
2023-03-02T17:32:15.696Z,10.00
2023-03-02T17:34:46.188Z,11.10
2023-03-02T17:37:17.575Z,10.77
2023-03-02T17:39:51.051Z,9.00
2023-03-02T17:42:21.592Z,9.40
2023-03-02T17:44:52.765Z,9.90
2023-03-02T17:47:24.917Z,9.57
2023-03-02T17:49:58.205Z,9.90
2023-03-02T17:52:30.407Z,10.07
2023-03-02T17:55:00.908Z,9.43
2023-03-02T17:57:31.862Z,10.80
2023-03-02T18:00:03.937Z,9.87
2023-03-02T18:02:37.257Z,10.03
2023-03-02T18:05:10.238Z,10.93
2023-03-02T18:07:40.708Z,10.63
2023-03-02T18:10:13.985Z,9.70
2023-03-02T18:12:45.591Z,8.70
2023-03-02T18:15:15.907Z,8.67
2023-03-02T18:17:46.513Z,9.13
2023-03-02T18:20:17.743Z,10.23
2023-03-02T18:22:48.377Z,9.80
2023-03-02T18:25:19.160Z,9.83
2023-03-02T18:27:49.644Z,10.10
2023-03-02T18:30:21.802Z,10.37
2023-03-02T18:32:54.047Z,10.43
2023-03-02T18:35:29.192Z,9.77
2023-03-02T18:37:59.712Z,9.27
2023-03-02T18:40:32.012Z,9.13
2023-03-02T18:43:03.122Z,9.87
2023-03-02T18:45:34.688Z,9.73
2023-03-02T18:48:05.959Z,9.80
2023-03-02T18:50:37.119Z,9.10
2023-03-02T18:53:09.981Z,8.83
2023-03-02T18:55:42.948Z,9.13
2023-03-02T18:58:16.859Z,17.40
2023-03-02T19:00:48.217Z,9.30
2023-03-02T19:03:19.439Z,19.87
2023-03-02T19:05:50.003Z,13.27
2023-03-02T19:08:22.232Z,19.63
2023-03-02T19:10:54.204Z,10.40
2023-03-02T19:13:32.793Z,11.23
2023-03-02T19:15:59.928Z,10.70
2023-03-02T19:18:32.112Z,10.80
2023-03-02T19:21:04.128Z,11.13
2023-03-02T19:23:34.806Z,9.23
2023-03-02T19:26:05.440Z,9.43
2023-03-02T19:28:38.085Z,10.00
2023-03-02T19:31:11.269Z,10.47
2023-03-02T19:33:43.034Z,10.87
2023-03-02T19:36:13.717Z,11.07
2023-03-02T19:38:44.502Z,10.13
2023-03-02T19:41:17.292Z,11.27
2023-03-02T19:43:56.357Z,11.93
2023-03-02T19:46:27.850Z,10.17
2023-03-02T19:48:59.976Z,11.07
2023-03-02T19:51:30.528Z,10.77
2023-03-02T19:54:03.106Z,10.70
2023-03-02T19:56:35.118Z,11.37
2023-03-02T19:59:06.906Z,10.63
2023-03-02T20:01:39.304Z,10.60
2023-03-02T20:04:09.803Z,11.40
2023-03-02T20:06:40.473Z,10.63
2023-03-02T20:09:12.585Z,10.87
2023-03-02T20:11:44.567Z,9.73
2023-03-02T20:14:31.248Z,9.87
2023-03-02T20:16:47.905Z,11.17
2023-03-02T20:19:20.548Z,10.70
2023-03-02T20:21:52.082Z,11.90
2023-03-02T20:24:23.043Z,12.63
2023-03-02T20:26:53.610Z,11.30
2023-03-02T20:29:24.131Z,13.40
2023-03-02T20:31:57.988Z,13.00
2023-03-02T20:34:28.920Z,11.23
2023-03-02T20:37:03.066Z,12.30
2023-03-02T20:39:35.967Z,13.13
2023-03-02T20:42:08.126Z,12.27
2023-03-02T20:44:39.917Z,13.07
2023-03-02T20:47:12.797Z,14.00
2023-03-02T20:49:45.052Z,14.50
2023-03-02T20:52:18.123Z,13.67
2023-03-02T20:54:48.673Z,12.37
2023-03-02T20:57:21.692Z,14.13
2023-03-02T20:59:52.404Z,14.57
2023-03-02T21:02:25.527Z,13.93
2023-03-02T21:04:56.440Z,12.60
2023-03-02T21:07:27.154Z,11.60
2023-03-02T21:09:57.978Z,12.00
2023-03-02T21:12:33.208Z,11.37
2023-03-02T21:15:04.533Z,11.23
2023-03-02T21:17:35.557Z,11.23
2023-03-02T21:20:08.154Z,11.17
2023-03-02T21:22:40.185Z,11.03
2023-03-02T21:25:11.353Z,11.53
2023-03-02T21:27:43.794Z,11.43
2023-03-02T21:30:17.938Z,11.67
2023-03-02T21:32:49.142Z,16.80
2023-03-02T21:35:27.421Z,13.20
2023-03-02T21:38:02.413Z,12.63
2023-03-02T21:40:41.360Z,13.07
2023-03-02T21:43:12.242Z,12.73
2023-03-02T21:45:43.113Z,11.40
2023-03-02T21:48:16.677Z,12.80
2023-03-02T21:50:51.555Z,12.03
2023-03-02T21:53:23.494Z,12.70
2023-03-02T21:55:54.996Z,14.23
2023-03-02T21:58:25.581Z,13.13
2023-03-02T22:00:56.006Z,13.60
2023-03-02T22:03:27.891Z,13.63
2023-03-02T22:05:58.518Z,14.53
2023-03-02T22:08:29.263Z,13.43
2023-03-02T22:11:00.196Z,14.10
2023-03-02T22:13:34.948Z,13.50
2023-03-02T22:16:21.064Z,14.50
2023-03-02T22:18:57.447Z,13.03
2023-03-02T22:21:34.623Z,13.70
2023-03-02T22:24:14.330Z,13.10
2023-03-02T22:26:48.635Z,13.67
2023-03-02T22:29:25.560Z,13.33
2023-03-02T22:31:58.967Z,12.70
2023-03-02T22:34:32.213Z,13.23
2023-03-02T22:37:14.686Z,13.07
2023-03-02T22:39:48.380Z,14.23
2023-03-02T22:42:21.442Z,14.17
2023-03-02T22:45:04.574Z,14.20
2023-03-02T22:47:35.435Z,14.30
2023-03-02T22:50:24.871Z,12.73
2023-03-02T22:52:57.664Z,13.27
2023-03-02T22:55:43.148Z,13.07
2023-03-02T22:58:34.582Z,13.68
2023-03-02T23:01:08.236Z,14.47
2023-03-02T23:03:41.444Z,14.43
2023-03-02T23:06:27.275Z,13.87
2023-03-02T23:09:00.615Z,13.47
2023-03-02T23:11:34.133Z,12.27
2023-03-02T23:14:23.745Z,12.37
2023-03-02T23:17:15.475Z,13.50
2023-03-02T23:19:46.198Z,14.93
2023-03-02T23:22:17.614Z,12.87
2023-03-02T23:24:48.360Z,13.13
2023-03-02T23:27:18.996Z,13.67
2023-03-02T23:29:53.136Z,13.17
2023-03-02T23:32:23.988Z,12.43
2023-03-02T23:34:56.649Z,13.53
2023-03-02T23:37:27.215Z,13.23
2023-03-02T23:39:57.801Z,13.90
2023-03-02T23:42:28.528Z,14.33
2023-03-02T23:45:00.450Z,14.33
2023-03-02T23:47:31.007Z,14.73
2023-03-02T23:50:02.899Z,15.33
2023-03-02T23:52:35.020Z,14.07
2023-03-02T23:55:07.283Z,13.17
2023-03-02T23:57:37.842Z,12.53
